createdAt,value
2019-04-11T00:00:45.922Z,96549.75
2019-04-11T00:01:54.253Z,96550.16
2019-04-11T00:02:57.865Z,96552.84
2019-04-11T00:04:01.919Z,96550.87
2019-04-11T00:05:06.440Z,96556.69
2019-04-11T00:06:10.108Z,96551.58
2019-04-11T00:07:14.279Z,96551.62
2019-04-11T00:08:19.590Z,96551.91
2019-04-11T00:09:24.637Z,96547.44
2019-04-11T00:10:29.299Z,96553.18
2019-04-11T00:11:33.580Z,96546.92
2019-04-11T00:12:37.386Z,96549.53
2019-04-11T00:13:41.193Z,96552.55
2019-04-11T00:14:45.747Z,96549.67
2019-04-11T00:15:50.885Z,96553.34
2019-04-11T00:16:55.413Z,96548.52
2019-04-11T00:17:59.126Z,96544.94
2019-04-11T00:19:03.109Z,96543.55
2019-04-11T00:20:07.672Z,96543.78
2019-04-11T00:21:11.481Z,96550.50
2019-04-11T00:22:15.209Z,96546.63
2019-04-11T00:23:18.860Z,96552.00
2019-04-11T00:24:22.892Z,96548.11
2019-04-11T00:25:27.530Z,96548.75
2019-04-11T00:26:32.600Z,96551.21
2019-04-11T00:27:37.250Z,96554.91
2019-04-11T00:28:41.691Z,96557.73
2019-04-11T00:29:45.439Z,96556.95
2019-04-11T00:30:49.089Z,96549.23
2019-04-11T00:31:52.845Z,96543.86
2019-04-11T00:32:56.384Z,96540.35
2019-04-11T00:34:00.160Z,96544.53
2019-04-11T00:35:04.925Z,96536.84
2019-04-11T00:36:08.564Z,96542.86
2019-04-11T00:37:12.770Z,96545.77
2019-04-11T00:38:16.447Z,96539.72
2019-04-11T00:39:22.130Z,96544.86
2019-04-11T00:40:26.971Z,96544.53
2019-04-11T00:41:32.264Z,96541.83
2019-04-11T00:42:36.789Z,96539.82
2019-04-11T00:43:43.511Z,96542.16
2019-04-11T00:44:47.978Z,96541.13
2019-04-11T00:45:51.921Z,96537.62
2019-04-11T00:46:56.352Z,96539.98
2019-04-11T00:48:00.069Z,96540.95
2019-04-11T00:49:03.743Z,96539.98
2019-04-11T00:50:07.682Z,96542.92
2019-04-11T00:51:11.911Z,96540.57
2019-04-11T00:52:16.288Z,96541.52
2019-04-11T00:53:20.507Z,96548.89
2019-04-11T00:54:24.805Z,96544.42
2019-04-11T00:55:29.349Z,96541.02
2019-04-11T00:56:33.082Z,96537.73
2019-04-11T00:57:37.070Z,96537.18
2019-04-11T00:58:41.554Z,96540.76
2019-04-11T00:59:45.303Z,96544.20
2019-04-11T01:00:48.960Z,96541.95
2019-04-11T01:01:53.392Z,96537.92
2019-04-11T01:02:57.952Z,96542.81
2019-04-11T01:04:01.748Z,96541.25
2019-04-11T01:05:07.457Z,96545.05
2019-04-11T01:06:12.201Z,96543.05
2019-04-11T01:07:16.563Z,96535.24
2019-04-11T01:08:20.409Z,96536.02
2019-04-11T01:09:24.309Z,96538.23
2019-04-11T01:10:27.945Z,96540.66
2019-04-11T01:11:32.105Z,96537.16
2019-04-11T01:12:36.551Z,96537.92
2019-04-11T01:13:47.702Z,96539.67
2019-04-11T01:14:46.838Z,96541.99
2019-04-11T01:15:52.431Z,96540.95
2019-04-11T01:16:56.950Z,96541.06
2019-04-11T01:18:01.471Z,96537.03
2019-04-11T01:19:05.183Z,96532.81
2019-04-11T01:20:09.867Z,96539.05
2019-04-11T01:21:14.169Z,96547.41
2019-04-11T01:22:18.183Z,96542.41
2019-04-11T01:23:22.772Z,96548.23
2019-04-11T01:24:28.074Z,96541.73
2019-04-11T01:25:32.668Z,96547.78
2019-04-11T01:26:37.188Z,96545.84
2019-04-11T01:27:41.231Z,96547.85
2019-04-11T01:28:45.273Z,96545.16
2019-04-11T01:29:49.490Z,96543.67
2019-04-11T01:30:58.853Z,96546.25
2019-04-11T01:32:04.322Z,96548.00
2019-04-11T01:33:08.031Z,96546.55
2019-04-11T01:34:12.660Z,96547.63
2019-04-11T01:35:17.266Z,96541.13
2019-04-11T01:36:21.394Z,96550.80
2019-04-11T01:37:25.991Z,96551.92
2019-04-11T01:38:30.483Z,96549.23
2019-04-11T01:39:38.740Z,96543.52
2019-04-11T01:40:42.379Z,96553.90
2019-04-11T01:41:46.756Z,96551.44
2019-04-11T01:42:51.362Z,96554.34
2019-04-11T01:44:01.783Z,96547.36
2019-04-11T01:45:01.055Z,96547.85
2019-04-11T01:46:05.667Z,96555.91
2019-04-11T01:47:11.198Z,96557.67
2019-04-11T01:48:19.597Z,96552.70
2019-04-11T01:49:28.344Z,96555.42
2019-04-11T01:50:32.960Z,96551.44
2019-04-11T01:51:36.622Z,96559.27
2019-04-11T01:52:40.348Z,96557.85
2019-04-11T01:53:43.973Z,96560.20
2019-04-11T01:54:47.990Z,96565.09
2019-04-11T01:55:52.556Z,96561.77
2019-04-11T01:56:57.900Z,96563.70
2019-04-11T01:58:02.541Z,96558.59
2019-04-11T01:59:07.014Z,96561.55
2019-04-11T02:00:15.623Z,96563.23
2019-04-11T02:01:21.000Z,96562.52
2019-04-11T02:02:26.507Z,96565.84
2019-04-11T02:03:35.065Z,96563.74
2019-04-11T02:04:40.525Z,96569.19
2019-04-11T02:05:45.280Z,96568.81
2019-04-11T02:06:49.994Z,96566.58
2019-04-11T02:07:53.634Z,96569.45
2019-04-11T02:08:57.740Z,96574.48
2019-04-11T02:10:02.494Z,96568.97
2019-04-11T02:11:07.038Z,96567.33
2019-04-11T02:12:12.081Z,96571.91
2019-04-11T02:13:15.853Z,96565.88
2019-04-11T02:14:21.166Z,96564.09
2019-04-11T02:15:26.678Z,96563.78
2019-04-11T02:16:37.513Z,96568.17
2019-04-11T02:17:41.220Z,96574.41
2019-04-11T02:18:45.717Z,96571.73
2019-04-11T02:19:50.290Z,96568.11
2019-04-11T02:20:54.352Z,96571.02
2019-04-11T02:22:00.131Z,96570.69
2019-04-11T02:23:06.771Z,96567.92
2019-04-11T02:24:12.071Z,96569.59
2019-04-11T02:25:18.510Z,96569.67
2019-04-11T02:26:33.439Z,96568.11
2019-04-11T02:27:40.058Z,96568.11
2019-04-11T02:28:44.630Z,96562.61
2019-04-11T02:29:48.885Z,96568.02
2019-04-11T02:30:56.238Z,96569.55
2019-04-11T02:32:03.387Z,96572.80
2019-04-11T02:33:06.982Z,96577.30
2019-04-11T02:34:11.492Z,96572.27
2019-04-11T02:35:17.607Z,96580.29
2019-04-11T02:36:21.365Z,96578.50
2019-04-11T02:37:26.299Z,96582.64
2019-04-11T02:38:30.540Z,96576.42
2019-04-11T02:39:35.609Z,96576.23
2019-04-11T02:40:41.082Z,96587.64
2019-04-11T02:41:46.774Z,96584.96
2019-04-11T02:42:51.851Z,96589.80
2019-04-11T02:43:57.508Z,96592.85
2019-04-11T02:45:18.058Z,96588.34
2019-04-11T02:46:17.410Z,96594.84
2019-04-11T02:47:18.173Z,96583.14
2019-04-11T02:48:18.347Z,96598.00
2019-04-11T02:49:23.763Z,96594.75
2019-04-11T02:50:27.579Z,96596.88
2019-04-11T02:51:31.358Z,96598.41
2019-04-11T02:52:35.538Z,96607.25
2019-04-11T02:53:40.917Z,96610.72
2019-04-11T02:54:45.231Z,96607.70
2019-04-11T02:55:49.792Z,96605.58
2019-04-11T02:56:54.788Z,96608.40
2019-04-11T02:57:59.779Z,96615.67
2019-04-11T02:59:05.163Z,96617.80
2019-04-11T03:00:11.134Z,96616.90
2019-04-11T03:01:15.571Z,96620.14
2019-04-11T03:02:21.182Z,96627.10
2019-04-11T03:03:25.524Z,96628.14
2019-04-11T03:04:30.992Z,96621.98
2019-04-11T03:05:37.549Z,96627.02
2019-04-11T03:06:41.785Z,96633.41
2019-04-11T03:07:46.323Z,96625.60
2019-04-11T03:08:53.077Z,96625.83
2019-04-11T03:09:56.825Z,96629.61
2019-04-11T03:11:01.793Z,96628.52
2019-04-11T03:12:07.241Z,96627.84
2019-04-11T03:13:12.695Z,96627.84
2019-04-11T03:14:19.054Z,96631.91
2019-04-11T03:15:37.681Z,96625.22
2019-04-11T03:16:42.650Z,96634.14
2019-04-11T03:17:40.071Z,96634.14
2019-04-11T03:18:54.917Z,96637.72
2019-04-11T03:19:59.444Z,96635.48
2019-04-11T03:20:56.957Z,96637.45
2019-04-11T03:21:57.257Z,96637.45
2019-04-11T03:23:05.084Z,96638.02
2019-04-11T03:24:10.351Z,96642.64
2019-04-11T03:25:11.946Z,96644.09
2019-04-11T03:26:16.897Z,96644.09
2019-04-11T03:27:22.391Z,96650.26
2019-04-11T03:28:30.147Z,96645.58
2019-04-11T03:29:33.768Z,96652.05
2019-04-11T03:30:57.354Z,96652.59
2019-04-11T03:32:24.616Z,96659.98
2019-04-11T17:18:14.099Z,96661.48
2019-04-11T17:19:17.727Z,96662.77
2019-04-11T17:20:21.543Z,96662.75
2019-04-11T17:21:25.188Z,96666.43
2019-04-11T17:22:28.842Z,96662.95
2019-04-11T17:23:32.519Z,96662.30
2019-04-11T17:24:36.444Z,96668.31
2019-04-11T17:25:39.926Z,96670.80
2019-04-11T17:26:43.586Z,96670.72
2019-04-11T17:27:47.301Z,96672.46
2019-04-11T17:28:53.570Z,96669.73
2019-04-11T17:29:56.478Z,96672.81
2019-04-11T17:31:02.284Z,96676.06
2019-04-11T17:32:05.595Z,96674.51
2019-04-11T17:33:09.308Z,96678.52
2019-04-11T17:34:12.955Z,96684.27
2019-04-11T17:35:16.743Z,96687.60
2019-04-11T17:36:20.471Z,96689.84
2019-04-11T17:37:24.119Z,96694.47
2019-04-11T17:38:27.833Z,96698.10
2019-04-11T17:39:36.626Z,96702.34
2019-04-11T17:40:40.085Z,96704.27
2019-04-11T17:41:43.995Z,96705.74
2019-04-11T17:42:47.737Z,96710.82
2019-04-11T17:43:51.891Z,96709.67
2019-04-11T17:44:59.261Z,96710.22
2019-04-11T17:46:03.267Z,96708.75
2019-04-11T17:47:07.042Z,96709.80
2019-04-11T17:48:11.039Z,96712.71
2019-04-11T17:49:14.675Z,96711.86
2019-04-11T17:50:18.306Z,96713.00
2019-04-11T17:51:21.984Z,96714.91
2019-04-11T17:52:25.614Z,96717.50
2019-04-11T17:53:29.273Z,96713.81
2019-04-11T17:54:33.015Z,96717.42
2019-04-11T17:55:36.688Z,96716.89
2019-04-11T17:56:40.576Z,96721.27
2019-04-11T17:57:44.223Z,96722.06
2019-04-11T17:58:47.975Z,96724.16
2019-04-11T17:59:51.623Z,96726.75
2019-04-11T18:00:56.887Z,96726.61
2019-04-11T18:02:00.563Z,96729.88
2019-04-11T18:03:04.186Z,96731.44
2019-04-11T18:04:08.845Z,96729.56
2019-04-11T18:05:16.692Z,96729.67
2019-04-11T18:06:18.310Z,96730.08
2019-04-11T18:07:22.004Z,96737.36
2019-04-11T18:08:25.723Z,96734.34
2019-04-11T18:09:29.352Z,96735.39
2019-04-11T18:10:33.511Z,96740.09
2019-04-11T18:11:37.115Z,96739.84
2019-04-11T18:12:41.148Z,96740.01
2019-04-11T18:13:45.707Z,96742.80
2019-04-11T18:14:49.350Z,96747.49
2019-04-11T18:15:53.111Z,96743.09
2019-04-11T18:17:01.572Z,96741.17
2019-04-11T18:18:03.097Z,96747.92
2019-04-11T18:19:09.655Z,96748.97
2019-04-11T18:20:13.512Z,96749.19
2019-04-11T18:21:17.526Z,96751.22
2019-04-11T18:22:21.177Z,96754.11
2019-04-11T18:23:25.132Z,96752.41
2019-04-11T18:24:28.780Z,96759.40
2019-04-11T18:25:32.560Z,96755.48
2019-04-11T18:26:36.270Z,96747.88
2019-04-11T18:27:39.918Z,96760.59
2019-04-11T18:28:43.591Z,96758.84
2019-04-11T18:29:47.599Z,96757.78
2019-04-11T18:30:53.802Z,96761.27
2019-04-11T18:31:56.696Z,96758.45
2019-04-11T18:33:00.402Z,96764.26
2019-04-11T18:34:04.552Z,96763.61
2019-04-11T18:35:08.564Z,96763.03
2019-04-11T18:36:12.294Z,96765.80
2019-04-11T18:37:15.963Z,96757.30
2019-04-11T18:38:19.590Z,96758.57
2019-04-11T18:39:23.252Z,96767.59
2019-04-11T18:40:26.856Z,96761.77
2019-04-11T18:41:30.560Z,96762.27
2019-04-11T18:42:34.248Z,96766.23
2019-04-11T18:43:38.291Z,96762.70
2019-04-11T18:44:42.064Z,96770.14
2019-04-11T18:45:45.846Z,96764.67
2019-04-11T18:46:49.733Z,96772.91
2019-04-11T18:47:53.408Z,96769.78
2019-04-11T18:48:57.535Z,96775.88
2019-04-11T18:50:01.227Z,96768.28
2019-04-11T18:51:04.883Z,96769.41
2019-04-11T18:52:19.227Z,96769.77
2019-04-11T18:53:14.207Z,96770.19
2019-04-11T18:54:17.840Z,96769.19
2019-04-11T18:55:21.534Z,96765.88
2019-04-11T18:56:25.180Z,96771.48
2019-04-11T18:57:28.889Z,96774.94
2019-04-11T18:58:34.451Z,96778.50
2019-04-11T18:59:37.971Z,96774.60
2019-04-11T19:00:41.578Z,96776.66
2019-04-11T19:01:45.288Z,96776.05
2019-04-11T19:02:49.017Z,96766.63
2019-04-11T19:03:54.297Z,96774.77
2019-04-11T19:04:57.941Z,96775.69
2019-04-11T19:06:01.583Z,96773.14
2019-04-11T19:07:06.021Z,96779.50
2019-04-11T19:08:12.886Z,96776.53
2019-04-11T19:09:16.872Z,96783.20
2019-04-11T19:10:20.741Z,96777.69
2019-04-11T19:11:25.520Z,96778.09
2019-04-11T19:12:30.139Z,96780.95
2019-04-11T19:13:33.950Z,96782.42
2019-04-11T19:14:43.841Z,96785.17
2019-04-11T19:15:47.163Z,96781.73
2019-04-11T19:16:51.061Z,96790.16
2019-04-11T19:18:06.369Z,96790.44
2019-04-11T19:19:03.978Z,96790.50
2019-04-11T19:20:07.745Z,96795.20
2019-04-11T19:21:11.570Z,96798.25
2019-04-11T19:22:15.241Z,96798.47
2019-04-11T19:23:18.917Z,96801.34
2019-04-11T19:24:22.656Z,96794.33
2019-04-11T19:25:26.351Z,96799.72
2019-04-11T19:26:30.150Z,96799.03
2019-04-11T19:27:33.831Z,96795.61
2019-04-11T19:28:37.393Z,96795.98
2019-04-11T19:29:41.030Z,96794.98
2019-04-11T19:30:44.917Z,96795.55
2019-04-11T19:31:48.567Z,96792.42
2019-04-11T19:32:52.241Z,96792.98
2019-04-11T19:33:55.870Z,96793.36
2019-04-11T19:34:59.837Z,96790.66
2019-04-11T19:36:03.497Z,96795.83
2019-04-11T19:37:11.669Z,96793.27
2019-04-11T19:38:33.107Z,96797.81
2019-04-11T19:39:37.883Z,96799.02
2019-04-11T19:40:41.516Z,96798.98
2019-04-11T19:41:47.776Z,96802.73
2019-04-11T19:42:50.623Z,96804.62
2019-04-11T19:43:54.319Z,96804.85
2019-04-11T19:44:57.908Z,96808.55
2019-04-11T19:46:01.608Z,96808.55
2019-04-11T19:47:05.276Z,96812.70
2019-04-11T19:48:08.984Z,96810.80
2019-04-11T19:49:12.686Z,96811.36
2019-04-11T19:50:16.322Z,96812.08
2019-04-11T19:51:19.980Z,96811.86
2019-04-11T19:52:23.668Z,96812.98
2019-04-11T19:53:27.361Z,96812.34
2019-04-11T19:54:33.024Z,96815.94
2019-04-11T19:55:38.219Z,96821.30
2019-04-11T19:56:43.492Z,96818.03
2019-04-11T19:57:47.202Z,96812.80
2019-04-11T19:58:50.823Z,96822.06
2019-04-11T19:59:54.531Z,96824.83
2019-04-11T20:00:58.161Z,96819.44
2019-04-11T20:02:01.796Z,96823.41
2019-04-11T20:03:05.505Z,96823.41
2019-04-11T20:04:09.151Z,96821.05
2019-04-11T20:05:12.789Z,96823.19
2019-04-11T20:06:16.421Z,96823.52
2019-04-11T20:07:20.482Z,96823.52
2019-04-11T20:08:24.165Z,96815.03
2019-04-11T20:09:27.818Z,96818.59
2019-04-11T20:10:31.565Z,96820.20
2019-04-11T20:11:35.253Z,96819.34
2019-04-11T20:12:38.885Z,96821.81
2019-04-11T20:13:42.571Z,96822.73
2019-04-11T20:14:46.202Z,96819.60
2019-04-11T20:15:50.670Z,96819.60
2019-04-11T20:16:54.467Z,96818.86
2019-04-11T20:17:58.123Z,96818.86
2019-04-11T20:19:01.899Z,96813.20
2019-04-11T20:20:07.013Z,96819.16
2019-04-11T20:21:11.398Z,96813.03
2019-04-11T20:22:15.172Z,96815.86
2019-04-11T20:23:18.807Z,96810.08
2019-04-11T20:24:22.466Z,96810.31
2019-04-11T20:25:26.066Z,96804.70
2019-04-11T20:26:29.618Z,96810.42
2019-04-11T20:27:33.270Z,96808.45
2019-04-11T20:28:36.913Z,96806.55
2019-04-11T20:29:40.601Z,96807.27
2019-04-11T20:30:44.533Z,96808.84
2019-04-11T20:31:48.169Z,96811.08
2019-04-11T20:32:51.830Z,96813.14
2019-04-11T20:33:55.450Z,96810.77
2019-04-11T20:34:59.132Z,96810.77
2019-04-11T20:36:02.787Z,96814.30
2019-04-11T20:37:06.430Z,96814.97
2019-04-11T20:38:10.091Z,96814.08
2019-04-11T20:39:15.212Z,96810.50
2019-04-11T20:40:22.274Z,96816.30
2019-04-11T20:41:24.504Z,96820.20
2019-04-11T20:42:28.157Z,96813.22
2019-04-11T20:43:31.766Z,96812.07
2019-04-11T20:44:35.708Z,96812.52
2019-04-11T20:45:41.013Z,96810.05
2019-04-11T20:46:45.616Z,96808.37
2019-04-11T20:47:49.254Z,96809.36
2019-04-11T20:48:54.654Z,96809.13
2019-04-11T20:49:58.416Z,96813.39
2019-04-11T20:51:02.146Z,96814.95
2019-04-11T20:52:05.767Z,96819.47
2019-04-11T20:53:13.012Z,96823.28
2019-04-11T20:54:14.679Z,96819.47
2019-04-11T20:55:18.308Z,96822.63
2019-04-11T20:56:24.441Z,96821.41
2019-04-11T20:57:27.294Z,96826.45
2019-04-11T20:58:30.964Z,96822.83
2019-04-11T20:59:35.203Z,96814.84
2019-04-11T21:00:49.502Z,96818.89
2019-04-11T21:01:44.821Z,96813.97
2019-04-11T21:02:48.474Z,96820.47
2019-04-11T21:03:52.100Z,96817.08
2019-04-11T21:04:55.752Z,96827.16
2019-04-11T21:06:01.707Z,96826.38
2019-04-11T21:07:04.780Z,96821.42
2019-04-11T21:08:08.430Z,96826.69
2019-04-11T21:09:12.662Z,96820.98
2019-04-11T21:10:16.296Z,96828.45
2019-04-11T21:11:19.928Z,96820.08
2019-04-11T21:12:23.601Z,96823.58
2019-04-11T21:13:27.228Z,96822.28
2019-04-11T21:14:30.973Z,96822.45
2019-04-11T21:15:34.619Z,96819.99
2019-04-11T21:16:38.264Z,96813.52
2019-04-11T21:17:41.918Z,96814.64
2019-04-11T21:18:45.644Z,96812.17
2019-04-11T21:19:50.948Z,96811.62
2019-04-11T21:20:55.343Z,96807.91
2019-04-11T21:21:59.475Z,96815.80
2019-04-11T21:23:03.286Z,96825.41
2019-04-11T21:24:06.922Z,96821.83
2019-04-11T21:25:10.664Z,96820.71
2019-04-11T21:26:14.360Z,96823.26
2019-04-11T21:27:17.987Z,96828.08
2019-04-11T21:28:21.666Z,96827.85
2019-04-11T21:29:29.985Z,96823.16
2019-04-11T21:30:32.113Z,96824.92
2019-04-11T21:31:35.794Z,96829.41
2019-04-11T21:32:39.487Z,96825.51
2019-04-11T21:33:43.180Z,96826.27
2019-04-11T21:34:46.830Z,96812.98
2019-04-11T21:35:50.420Z,96814.88
2019-04-11T21:36:54.157Z,96812.88
2019-04-11T21:38:00.186Z,96811.72
2019-04-11T21:39:04.616Z,96811.95
2019-04-11T21:40:08.362Z,96808.84
2019-04-11T21:41:12.058Z,96807.69
2019-04-11T21:42:15.697Z,96809.48
2019-04-11T21:43:19.340Z,96803.77
2019-04-11T21:44:23.010Z,96809.02
2019-04-11T21:45:26.773Z,96800.61
2019-04-11T21:46:31.662Z,96803.16
2019-04-11T21:47:37.190Z,96800.36
2019-04-11T21:48:40.927Z,96800.03
2019-04-11T21:49:44.562Z,96800.70
2019-04-11T21:50:48.221Z,96795.46
2019-04-11T21:51:51.903Z,96799.13
2019-04-11T21:52:55.546Z,96799.37
2019-04-11T21:53:59.193Z,96798.77
2019-04-11T21:55:02.969Z,96794.60
2019-04-11T21:56:06.619Z,96795.28
2019-04-11T21:57:10.273Z,96797.92
2019-04-11T21:58:13.962Z,96793.22
2019-04-11T21:59:19.979Z,96788.58
2019-04-11T22:00:30.580Z,96793.77
2019-04-11T22:01:36.442Z,96796.45
2019-04-11T22:02:40.200Z,96794.67
2019-04-11T22:03:44.447Z,96796.40
2019-04-11T22:04:48.202Z,96798.06
2019-04-11T22:05:51.996Z,96796.58
2019-04-11T22:06:55.650Z,96806.91
2019-04-11T22:08:00.915Z,96809.03
2019-04-11T22:09:06.516Z,96800.36
2019-04-11T22:10:10.730Z,96800.73
2019-04-11T22:11:14.413Z,96802.96
2019-04-11T22:12:18.069Z,96795.04
2019-04-11T22:13:21.713Z,96798.58
2019-04-11T22:14:25.430Z,96790.06
2019-04-11T22:15:29.127Z,96792.53
2019-04-11T22:16:32.804Z,96788.50
2019-04-11T22:17:36.432Z,96790.88
2019-04-11T22:18:40.070Z,96786.98
2019-04-11T22:19:45.835Z,96782.60
2019-04-11T22:20:49.150Z,96791.25
2019-04-11T22:21:53.159Z,96798.88
2019-04-11T22:22:56.782Z,96794.18
2019-04-11T22:24:00.412Z,96791.04
2019-04-11T22:25:05.138Z,96784.19
2019-04-11T22:26:08.787Z,96782.83
2019-04-11T22:27:12.447Z,96778.94
2019-04-11T22:28:16.171Z,96788.03
2019-04-11T22:29:19.727Z,96781.20
2019-04-11T22:30:25.314Z,96779.30
2019-04-11T22:31:28.803Z,96780.31
2019-04-11T22:32:32.492Z,96785.36
2019-04-11T22:33:37.787Z,96789.06
2019-04-11T22:34:43.084Z,96787.48
2019-04-11T22:35:46.738Z,96795.77
2019-04-11T22:36:50.389Z,96794.84
2019-04-11T22:37:54.082Z,96798.64
2019-04-11T22:38:58.740Z,96798.64
2019-04-11T22:40:03.595Z,96805.82
2019-04-11T22:41:07.392Z,96808.95
2019-04-11T22:42:11.287Z,96809.16
2019-04-11T22:43:24.090Z,96812.06
2019-04-11T22:44:20.361Z,96812.40
2019-04-11T22:45:24.211Z,96817.91
2019-04-11T22:46:27.867Z,96805.50
2019-04-11T22:47:31.830Z,96808.61
2019-04-11T22:48:36.842Z,96808.06
2019-04-11T22:49:40.940Z,96811.43
2019-04-11T22:50:44.573Z,96812.77
2019-04-11T22:51:48.313Z,96813.23
2019-04-11T22:52:52.347Z,96812.53
2019-04-11T22:54:00.555Z,96808.03
2019-04-11T22:55:01.317Z,96810.95
2019-04-11T22:56:04.972Z,96808.73
2019-04-11T22:57:11.679Z,96810.00
2019-04-11T22:58:14.710Z,96807.86
2019-04-11T22:59:18.545Z,96810.88
2019-04-11T23:00:22.457Z,96807.64
2019-04-11T23:01:26.103Z,96813.13
2019-04-11T23:02:37.199Z,96815.81
2019-04-11T23:03:42.524Z,96811.65
2019-04-11T23:04:47.163Z,96810.43
2019-04-11T23:05:51.316Z,96816.16
2019-04-11T23:06:54.959Z,96820.73
2019-04-11T23:07:58.666Z,96830.91
2019-04-11T23:09:02.319Z,96826.91
2019-04-11T23:10:07.502Z,96830.94
2019-04-11T23:11:11.182Z,96834.72
2019-04-11T23:12:15.221Z,96829.23
2019-04-11T23:13:19.550Z,96836.48
2019-04-11T23:14:23.185Z,96835.93
2019-04-11T23:15:26.850Z,96832.79
2019-04-11T23:16:30.432Z,96832.03
2019-04-11T23:17:34.070Z,96832.46
2019-04-11T23:18:37.720Z,96838.52
2019-04-11T23:19:41.831Z,96835.47
2019-04-11T23:20:47.094Z,96836.48
2019-04-11T23:21:50.872Z,96837.59
2019-04-11T23:22:54.526Z,96845.67
2019-04-11T23:23:58.164Z,96845.47
2019-04-11T23:25:01.848Z,96848.02
2019-04-11T23:26:05.585Z,96850.80
2019-04-11T23:27:09.345Z,96858.20
2019-04-11T23:28:15.567Z,96857.09
2019-04-11T23:29:18.350Z,96859.97
2019-04-11T23:30:22.057Z,96860.42
2019-04-11T23:31:25.750Z,96867.59
2019-04-11T23:32:29.341Z,96868.02
2019-04-11T23:33:33.032Z,96873.48
2019-04-11T23:34:36.624Z,96871.81
2019-04-11T23:35:40.315Z,96868.25
2019-04-11T23:36:43.878Z,96867.70
2019-04-11T23:37:51.922Z,96873.53
2019-04-11T23:38:55.804Z,96871.19
2019-04-11T23:39:59.433Z,96864.48
2019-04-11T23:41:03.071Z,96869.66
2019-04-11T23:42:06.749Z,96870.98
2019-04-11T23:43:10.470Z,96868.52
2019-04-11T23:44:14.162Z,96869.86
2019-04-11T23:45:20.779Z,96867.50
2019-04-11T23:46:25.033Z,96866.72
2019-04-11T23:47:28.715Z,96865.83
2019-04-11T23:48:32.316Z,96871.30
2019-04-11T23:49:36.010Z,96871.66
2019-04-11T23:50:39.573Z,96871.00
2019-04-11T23:51:43.189Z,96871.65
2019-04-11T23:52:46.900Z,96867.72
2019-04-11T23:53:50.528Z,96869.66
2019-04-11T23:54:54.030Z,96875.03
2019-04-11T23:55:59.834Z,96868.95
2019-04-11T23:57:03.092Z,96865.14
2019-04-11T23:58:06.783Z,96864.91
2019-04-11T23:59:10.522Z,96865.62
